createdAt,value
2023-05-12T00:00:58.379Z,37.85
2023-05-12T00:03:27.047Z,33.85
2023-05-12T00:05:55.496Z,29.38
2023-05-12T00:08:23.766Z,28.23
2023-05-12T00:10:52.239Z,32.42
2023-05-12T00:13:20.630Z,27.00
2023-05-12T00:15:49.200Z,19.48
2023-05-12T00:18:17.829Z,26.95
2023-05-12T00:20:46.196Z,31.60
2023-05-12T00:24:47.257Z,18.27
2023-05-12T00:27:15.502Z,32.97
2023-05-12T00:29:43.572Z,24.55
2023-05-12T00:32:11.859Z,30.17
2023-05-12T00:34:40.328Z,29.35
2023-05-12T00:37:08.834Z,24.17
2023-05-12T00:39:36.954Z,29.35
2023-05-12T00:42:05.288Z,34.22
2023-05-12T00:44:33.420Z,29.13
2023-05-12T00:47:01.772Z,36.55
2023-05-12T00:49:30.148Z,22.05
2023-05-12T00:51:59.924Z,36.95
2023-05-12T00:54:28.926Z,28.75
2023-05-12T00:56:58.029Z,29.15
2023-05-12T00:59:26.432Z,36.33
2023-05-12T01:01:54.878Z,32.95
2023-05-12T01:04:23.371Z,34.55
2023-05-12T01:07:05.263Z,26.35
2023-05-12T01:09:34.183Z,29.08
2023-05-12T01:12:03.261Z,26.92
2023-05-12T01:14:33.003Z,32.90
2023-05-12T01:17:04.876Z,25.00
2023-05-12T01:22:12.172Z,22.38
2023-05-12T01:24:49.624Z,30.42
2023-05-12T01:27:20.068Z,15.13
2023-05-12T01:29:50.248Z,21.35
2023-05-12T01:32:20.350Z,21.27
2023-05-12T01:34:48.607Z,16.65
2023-05-12T01:37:16.975Z,28.85
2023-05-12T01:39:45.776Z,31.35
2023-05-12T01:42:19.558Z,24.38
2023-05-12T01:44:48.370Z,23.35
2023-05-12T01:47:17.538Z,24.75
2023-05-12T01:49:53.133Z,24.33
2023-05-12T01:52:21.780Z,40.15
2023-05-12T01:54:49.982Z,51.53
2023-05-12T01:57:19.277Z,53.05
2023-05-12T01:59:48.610Z,40.28
2023-05-12T02:02:16.914Z,42.22
2023-05-12T02:04:45.393Z,31.35
2023-05-12T02:07:13.760Z,31.95
2023-05-12T02:09:42.248Z,39.80
2023-05-12T02:12:10.718Z,59.60
2023-05-12T02:14:39.118Z,52.97
2023-05-12T02:17:07.645Z,63.67
2023-05-12T02:19:35.864Z,52.33
2023-05-12T02:22:04.196Z,59.97
2023-05-12T02:24:32.576Z,40.83
2023-05-12T02:27:00.950Z,38.50
2023-05-12T02:29:29.320Z,36.92
2023-05-12T02:31:57.644Z,46.20
2023-05-12T02:34:25.864Z,30.58
2023-05-12T02:36:54.056Z,35.47
2023-05-12T02:39:22.453Z,25.13
2023-05-12T02:41:50.638Z,37.03
2023-05-12T02:44:19.006Z,44.85
2023-05-12T02:46:47.142Z,49.42
2023-05-12T02:49:15.315Z,38.50
2023-05-12T02:51:43.689Z,49.97
2023-05-12T02:54:11.957Z,47.65
2023-05-12T02:56:40.195Z,42.45
2023-05-12T02:59:08.432Z,41.20
2023-05-12T03:01:36.897Z,45.58
2023-05-12T03:04:05.103Z,36.83
2023-05-12T03:06:33.563Z,51.67
2023-05-12T03:09:01.883Z,62.15
2023-05-12T03:11:30.196Z,61.35
2023-05-12T03:13:58.755Z,76.45
2023-05-12T03:16:26.856Z,64.45
2023-05-12T03:18:55.529Z,63.28
2023-05-12T03:21:23.797Z,51.67
2023-05-12T03:23:52.255Z,55.97
2023-05-12T03:26:20.599Z,62.35
2023-05-12T03:28:49.695Z,55.60
2023-05-12T03:31:18.121Z,47.13
2023-05-12T03:33:46.726Z,46.65
2023-05-12T03:36:14.941Z,49.22
2023-05-12T03:38:43.227Z,46.92
2023-05-12T03:41:14.343Z,45.23
2023-05-12T03:43:42.732Z,43.28
2023-05-12T03:46:11.101Z,43.10
2023-05-12T03:48:39.321Z,51.05
2023-05-12T03:51:08.528Z,39.95
2023-05-12T03:53:36.892Z,42.33
2023-05-12T03:56:05.981Z,47.97
2023-05-12T03:58:34.035Z,42.92
2023-05-12T04:01:02.540Z,48.55
2023-05-12T04:03:31.023Z,41.33
2023-05-12T04:06:03.047Z,29.80
2023-05-12T04:08:31.722Z,31.08
2023-05-12T04:11:01.978Z,28.58
2023-05-12T04:13:31.146Z,23.55
2023-05-12T04:16:00.729Z,30.42
2023-05-12T04:18:29.328Z,21.08
2023-05-12T04:20:57.904Z,26.40
2023-05-12T04:23:26.328Z,28.35
2023-05-12T04:25:54.710Z,33.90
2023-05-12T04:28:22.824Z,26.08
2023-05-12T04:30:51.006Z,22.70
2023-05-12T04:33:19.303Z,31.52
2023-05-12T04:35:47.908Z,27.60
2023-05-12T04:38:17.172Z,22.83
2023-05-12T04:40:45.388Z,27.75
2023-05-12T04:43:59.940Z,26.58
2023-05-12T04:46:02.779Z,20.38
2023-05-12T04:48:31.015Z,24.10
2023-05-12T04:51:02.278Z,20.98
2023-05-12T04:53:30.521Z,25.25
2023-05-12T04:55:58.828Z,19.67
2023-05-12T04:58:29.407Z,19.05
2023-05-12T05:00:58.060Z,20.90
2023-05-12T05:03:26.377Z,17.60
2023-05-12T05:05:54.748Z,19.23
2023-05-12T05:08:23.039Z,15.38
2023-05-12T05:10:52.219Z,20.58
2023-05-12T05:13:20.416Z,23.10
2023-05-12T05:15:55.749Z,17.90
2023-05-12T05:18:25.997Z,24.05
2023-05-12T05:20:58.892Z,23.35
2023-05-12T05:23:27.980Z,25.85
2023-05-12T05:25:56.452Z,33.67
2023-05-12T05:28:24.610Z,22.10
2023-05-12T05:30:52.896Z,24.45
2023-05-12T05:33:21.155Z,16.77
2023-05-12T05:35:49.419Z,13.57
2023-05-12T05:38:18.230Z,12.85
2023-05-12T05:40:53.637Z,14.50
2023-05-12T05:43:24.489Z,8.40
2023-05-12T05:45:53.448Z,6.88
2023-05-12T05:48:22.793Z,4.53
2023-05-12T05:50:52.464Z,7.97
2023-05-12T05:53:23.007Z,3.75
2023-05-12T05:55:52.318Z,7.75
2023-05-12T05:58:20.677Z,10.90
2023-05-12T06:00:49.766Z,10.15
2023-05-12T06:03:18.153Z,8.85
2023-05-12T06:05:46.780Z,6.68
2023-05-12T06:08:14.913Z,5.38
2023-05-12T06:10:43.456Z,9.02
2023-05-12T06:13:11.751Z,11.43
2023-05-12T06:15:40.083Z,7.30
2023-05-12T06:18:08.456Z,6.22
2023-05-12T06:20:36.920Z,7.72
2023-05-12T06:23:05.066Z,11.88
2023-05-12T06:25:33.535Z,9.40
2023-05-12T06:28:02.159Z,11.85
2023-05-12T06:30:30.548Z,11.40
2023-05-12T06:32:58.662Z,13.10
2023-05-12T06:35:27.045Z,10.63
2023-05-12T06:37:55.200Z,13.13
2023-05-12T06:40:23.716Z,15.57
2023-05-12T06:42:51.908Z,11.20
2023-05-12T06:45:21.715Z,8.07
2023-05-12T06:47:50.578Z,13.30
2023-05-12T06:50:19.884Z,14.00
2023-05-12T06:52:52.651Z,17.20
2023-05-12T06:55:21.345Z,18.60
2023-05-12T06:57:49.673Z,21.73
2023-05-12T07:00:18.263Z,42.58
2023-05-12T07:02:46.478Z,62.88
2023-05-12T07:05:15.012Z,50.05
2023-05-12T07:07:43.049Z,45.47
2023-05-12T07:10:11.750Z,45.75
2023-05-12T07:12:40.048Z,37.42
2023-05-12T07:15:09.018Z,35.90
2023-05-12T07:17:37.085Z,23.02
2023-05-12T07:20:05.745Z,21.17
2023-05-12T07:22:34.780Z,23.48
2023-05-12T07:25:04.644Z,19.58
2023-05-12T07:27:32.959Z,26.92
2023-05-12T07:30:01.237Z,25.13
2023-05-12T07:32:29.829Z,28.05
2023-05-12T07:38:08.464Z,25.88
2023-05-12T07:40:36.869Z,17.95
2023-05-12T07:43:04.933Z,22.63
2023-05-12T07:45:33.334Z,16.23
2023-05-12T07:48:01.588Z,14.52
2023-05-12T07:50:29.945Z,21.55
2023-05-12T07:52:58.061Z,10.80
2023-05-12T07:55:26.714Z,13.48
2023-05-12T07:57:54.887Z,19.98
2023-05-12T08:00:23.260Z,11.48
2023-05-12T08:02:51.917Z,13.95
2023-05-12T08:05:21.074Z,13.77
2023-05-12T08:07:49.886Z,18.00
2023-05-12T08:10:18.050Z,27.42
2023-05-12T08:12:46.518Z,24.52
2023-05-12T08:15:14.752Z,23.45
2023-05-12T08:17:43.207Z,28.52
2023-05-12T08:20:11.968Z,25.77
2023-05-12T08:22:40.460Z,25.95
2023-05-12T08:25:11.014Z,18.90
2023-05-12T08:27:40.998Z,21.63
2023-05-12T08:30:09.909Z,15.68
2023-05-12T08:32:38.304Z,17.73
2023-05-12T08:35:06.857Z,21.00
2023-05-12T08:37:35.398Z,27.25
2023-05-12T08:40:03.647Z,19.75
2023-05-12T08:42:49.733Z,13.30
2023-05-12T08:45:18.485Z,17.40
2023-05-12T08:47:50.812Z,15.07
2023-05-12T08:50:24.999Z,16.58
2023-05-12T08:52:53.802Z,17.75
2023-05-12T08:55:27.046Z,19.13
2023-05-12T08:57:59.141Z,16.92
2023-05-12T09:00:29.124Z,18.75
2023-05-12T09:03:00.009Z,12.25
2023-05-12T09:05:30.129Z,22.77
2023-05-12T09:07:59.263Z,12.95
2023-05-12T09:13:05.298Z,11.10
2023-05-12T09:15:41.866Z,12.25
2023-05-12T09:18:10.424Z,35.13
2023-05-12T09:20:38.547Z,24.92
2023-05-12T09:23:18.026Z,17.85
2023-05-12T09:25:46.427Z,21.77
2023-05-12T09:28:15.665Z,22.17
2023-05-12T09:30:43.844Z,27.83
2023-05-12T09:33:15.340Z,22.05
2023-05-12T09:35:45.409Z,12.48
2023-05-12T09:38:15.244Z,12.65
2023-05-12T09:40:43.531Z,41.80
2023-05-12T09:43:15.058Z,17.38
2023-05-12T09:48:13.616Z,15.70
2023-05-12T09:50:49.581Z,11.88
2023-05-12T09:53:19.258Z,15.18
2023-05-12T09:55:49.153Z,15.27
2023-05-12T09:58:21.138Z,13.82
2023-05-12T10:03:40.873Z,12.65
2023-05-12T10:06:15.079Z,21.02
2023-05-12T10:08:49.369Z,11.63
2023-05-12T10:11:18.838Z,8.50
2023-05-12T10:13:48.305Z,19.70
2023-05-12T10:16:16.992Z,8.40
2023-05-12T10:18:45.913Z,11.07
2023-05-12T10:21:15.482Z,9.80
2023-05-12T10:23:45.431Z,8.88
2023-05-12T10:26:14.760Z,13.07
2023-05-12T10:28:43.344Z,8.93
2023-05-12T10:31:11.844Z,10.90
2023-05-12T10:33:40.189Z,9.05
2023-05-12T10:36:18.691Z,17.67
2023-05-12T10:38:49.556Z,9.45
2023-05-12T10:41:18.093Z,14.60
2023-05-12T10:43:51.197Z,21.63
2023-05-12T10:46:23.289Z,12.70
2023-05-12T10:51:26.440Z,18.08
2023-05-12T10:54:00.012Z,9.52
2023-05-12T10:56:52.455Z,7.72
2023-05-12T10:59:24.433Z,13.32
2023-05-12T11:02:14.600Z,8.25
2023-05-12T11:04:54.421Z,14.02
2023-05-12T11:07:24.830Z,16.83
2023-05-12T11:09:57.671Z,12.13
2023-05-12T11:12:29.517Z,13.88
2023-05-12T11:14:59.573Z,12.25
2023-05-12T11:17:27.942Z,12.43
2023-05-12T11:19:56.220Z,9.30
2023-05-12T11:22:25.194Z,27.13
2023-05-12T11:24:54.002Z,25.52
2023-05-12T11:27:23.839Z,11.00
2023-05-12T11:30:00.350Z,17.73
2023-05-12T11:32:29.080Z,13.32
2023-05-12T11:35:07.729Z,16.90
2023-05-12T11:37:39.136Z,119.03
2023-05-12T11:40:21.204Z,18.02
2023-05-12T11:45:22.658Z,21.70
2023-05-12T11:47:51.572Z,30.65
2023-05-12T11:50:26.113Z,17.23
2023-05-12T11:52:54.702Z,12.65
2023-05-12T11:55:24.589Z,15.07
2023-05-12T11:58:04.048Z,19.13
2023-05-12T12:00:35.149Z,12.27
2023-05-12T12:03:15.701Z,10.37
2023-05-12T12:05:57.311Z,11.20
2023-05-12T12:08:25.623Z,13.07
2023-05-12T12:10:53.820Z,9.38
2023-05-12T12:13:23.761Z,16.95
2023-05-12T12:15:52.727Z,9.25
2023-05-12T12:18:21.028Z,17.25
2023-05-12T12:20:52.516Z,15.52
2023-05-12T12:23:20.798Z,12.23
2023-05-12T12:25:49.145Z,14.25
2023-05-12T12:28:17.660Z,13.23
2023-05-12T12:30:45.781Z,15.57
2023-05-12T12:33:14.124Z,12.27
2023-05-12T12:35:42.352Z,21.73
2023-05-12T12:38:10.938Z,26.17
2023-05-12T12:40:39.123Z,17.85
2023-05-12T12:43:07.604Z,14.60
2023-05-12T12:45:35.789Z,13.48
2023-05-12T12:48:04.239Z,14.20
2023-05-12T12:50:32.452Z,14.65
2023-05-12T12:53:00.657Z,15.98
2023-05-12T12:55:29.582Z,17.13
2023-05-12T12:57:58.023Z,11.65
2023-05-12T13:00:26.356Z,34.15
2023-05-12T13:02:54.839Z,29.35
2023-05-12T13:05:23.330Z,21.00
2023-05-12T13:07:51.600Z,24.55
2023-05-12T13:10:19.742Z,27.27
2023-05-12T13:12:48.093Z,21.60
2023-05-12T13:15:17.930Z,11.38
2023-05-12T13:17:47.724Z,29.05
2023-05-12T13:20:16.961Z,27.77
2023-05-12T13:22:45.956Z,20.60
2023-05-12T13:25:14.784Z,18.52
2023-05-12T13:27:43.164Z,17.35
2023-05-12T13:30:13.551Z,26.95
2023-05-12T13:32:42.302Z,19.95
2023-05-12T13:35:10.670Z,21.05
2023-05-12T13:37:38.989Z,29.52
2023-05-12T13:40:08.100Z,62.80
2023-05-12T13:42:36.338Z,13.57
2023-05-12T13:45:04.866Z,14.95
2023-05-12T13:47:36.104Z,23.23
2023-05-12T13:50:04.644Z,16.13
2023-05-12T13:52:32.794Z,18.33
2023-05-12T13:55:01.003Z,20.13
2023-05-12T13:57:29.207Z,28.92
2023-05-12T13:59:57.537Z,29.50
2023-05-12T14:02:25.634Z,20.30
2023-05-12T14:04:54.077Z,25.48
2023-05-12T14:07:22.310Z,39.53
2023-05-12T14:09:52.980Z,33.42
2023-05-12T14:12:21.687Z,34.38
2023-05-12T14:14:50.080Z,24.73
2023-05-12T14:17:18.874Z,26.40
2023-05-12T14:19:47.121Z,16.70
2023-05-12T14:22:25.375Z,21.30
2023-05-12T14:24:54.864Z,23.45
2023-05-12T14:27:23.188Z,25.08
2023-05-12T14:29:51.392Z,34.90
2023-05-12T14:32:19.645Z,51.08
2023-05-12T14:34:47.974Z,45.08
2023-05-12T14:37:16.031Z,59.67
2023-05-12T14:39:44.715Z,66.13
2023-05-12T14:42:12.891Z,37.08
2023-05-12T14:44:40.941Z,23.15
2023-05-12T14:47:09.346Z,28.38
2023-05-12T14:49:37.552Z,17.27
2023-05-12T14:52:05.849Z,43.28
2023-05-12T14:54:34.684Z,36.97
2023-05-12T14:57:02.925Z,30.98
2023-05-12T14:59:31.433Z,23.98
2023-05-12T15:01:59.655Z,39.38
2023-05-12T15:04:28.110Z,28.67
2023-05-12T15:06:56.223Z,34.65
2023-05-12T15:09:24.509Z,18.92
2023-05-12T15:11:52.789Z,31.25
2023-05-12T15:14:22.172Z,23.27
2023-05-12T15:16:50.662Z,31.80
2023-05-12T15:19:19.008Z,50.88
2023-05-12T15:21:47.142Z,28.92
2023-05-12T15:24:15.481Z,24.30
2023-05-12T15:26:43.697Z,27.42
2023-05-12T15:29:12.018Z,28.88
2023-05-12T15:31:40.329Z,29.55
2023-05-12T15:34:08.874Z,19.05
2023-05-12T15:36:37.122Z,25.08
2023-05-12T15:39:05.500Z,21.27
2023-05-12T15:41:34.349Z,27.77
2023-05-12T15:44:02.428Z,26.52
2023-05-12T15:46:30.759Z,27.02
2023-05-12T15:48:59.049Z,24.42
2023-05-12T15:51:27.577Z,23.23
2023-05-12T15:53:55.808Z,23.98
2023-05-12T15:56:23.995Z,17.85
2023-05-12T15:58:52.679Z,30.52
2023-05-12T16:01:20.994Z,25.05
2023-05-12T16:03:53.264Z,28.10
2023-05-12T16:06:21.686Z,35.92
2023-05-12T16:08:50.008Z,17.27
2023-05-12T16:11:18.858Z,20.65
2023-05-12T16:13:47.064Z,19.70
2023-05-12T16:16:15.485Z,22.92
2023-05-12T16:18:43.707Z,25.27
2023-05-12T16:21:12.016Z,33.97
2023-05-12T16:23:40.505Z,28.05
2023-05-12T16:26:08.722Z,22.35
2023-05-12T16:28:36.952Z,38.92
2023-05-12T16:31:05.322Z,34.15
2023-05-12T16:33:33.705Z,39.17
2023-05-12T16:36:01.818Z,44.40
2023-05-12T16:38:30.264Z,29.75
2023-05-12T16:40:58.440Z,38.30
2023-05-12T16:43:26.757Z,37.92
2023-05-12T16:46:01.683Z,47.78
2023-05-12T16:48:30.489Z,56.42
2023-05-12T16:51:03.266Z,56.80
2023-05-12T16:53:32.130Z,45.83
2023-05-12T16:56:00.333Z,74.78
2023-05-12T16:58:30.001Z,47.58
2023-05-12T17:01:02.239Z,34.72
2023-05-12T17:03:30.646Z,25.17
2023-05-12T17:05:58.951Z,39.00
2023-05-12T17:08:27.180Z,47.55
2023-05-12T17:10:55.390Z,29.60
2023-05-12T17:13:23.629Z,54.60
2023-05-12T17:15:52.220Z,43.05
2023-05-12T17:18:20.526Z,25.67
2023-05-12T17:20:48.728Z,40.25
2023-05-12T17:23:16.912Z,27.58
2023-05-12T17:25:45.091Z,32.60
2023-05-12T17:28:13.280Z,38.38
2023-05-12T17:30:41.571Z,48.10
2023-05-12T17:33:09.759Z,38.33
2023-05-12T17:35:37.955Z,49.90
2023-05-12T17:38:06.475Z,34.72
2023-05-12T17:40:35.032Z,57.38
2023-05-12T17:43:03.336Z,73.28
2023-05-12T17:45:31.477Z,63.92
2023-05-12T17:48:00.308Z,70.40
2023-05-12T17:50:28.555Z,101.32
2023-05-12T17:52:56.873Z,66.95
2023-05-12T17:55:25.054Z,72.10
2023-05-12T17:57:53.441Z,86.65
2023-05-12T18:00:21.572Z,95.28
2023-05-12T18:02:49.931Z,70.75
2023-05-12T18:05:18.771Z,82.07
2023-05-12T18:07:47.026Z,72.68
2023-05-12T18:10:15.378Z,99.70
2023-05-12T18:12:43.841Z,86.15
2023-05-12T18:15:12.348Z,76.90
2023-05-12T18:17:41.024Z,96.45
2023-05-12T18:20:10.314Z,68.85
2023-05-12T18:22:38.611Z,70.03
2023-05-12T18:25:07.517Z,46.70
2023-05-12T18:27:35.866Z,60.08
2023-05-12T18:30:04.460Z,86.63
2023-05-12T18:32:32.590Z,98.28
2023-05-12T18:35:01.178Z,102.32
2023-05-12T18:37:29.767Z,72.38
2023-05-12T18:39:58.422Z,77.68
2023-05-12T18:42:26.777Z,94.60
2023-05-12T18:44:55.075Z,80.68
2023-05-12T18:47:23.354Z,88.28
2023-05-12T18:49:51.808Z,102.28
2023-05-12T18:52:20.198Z,81.20
2023-05-12T18:54:49.777Z,61.90
2023-05-12T18:57:21.294Z,291.42
2023-05-12T18:59:49.762Z,112.03
2023-05-12T19:02:17.913Z,104.97
2023-05-12T19:04:46.209Z,57.00
2023-05-12T19:07:14.736Z,46.28
2023-05-12T19:09:43.512Z,49.00
2023-05-12T19:12:12.152Z,64.75
2023-05-12T19:14:41.135Z,105.43
2023-05-12T19:17:09.239Z,94.75
2023-05-12T19:19:37.682Z,61.10
2023-05-12T19:22:06.025Z,50.83
2023-05-12T19:24:35.512Z,62.90
2023-05-12T19:27:06.963Z,109.00
2023-05-12T19:29:35.430Z,126.28
2023-05-12T19:32:03.983Z,84.55
2023-05-12T19:34:32.519Z,73.80
2023-05-12T19:37:01.027Z,43.78
2023-05-12T19:39:29.500Z,88.13
2023-05-12T19:41:57.915Z,54.78
2023-05-12T19:44:26.021Z,50.70
2023-05-12T19:46:55.262Z,34.63
2023-05-12T19:49:23.580Z,57.55
2023-05-12T19:51:52.082Z,112.70
2023-05-12T19:54:20.319Z,88.80
2023-05-12T19:56:48.660Z,53.78
2023-05-12T19:59:17.023Z,47.78
2023-05-12T20:01:46.015Z,66.88
2023-05-12T20:04:14.255Z,59.28
2023-05-12T20:06:42.556Z,69.18
2023-05-12T20:09:11.107Z,56.78
2023-05-12T20:11:39.726Z,61.83
2023-05-12T20:14:07.875Z,57.63
2023-05-12T20:16:36.386Z,90.28
2023-05-12T20:19:04.747Z,117.35
2023-05-12T20:21:33.219Z,86.47
2023-05-12T20:24:01.557Z,80.47
2023-05-12T20:26:29.719Z,89.47
2023-05-12T20:28:58.084Z,66.03
2023-05-12T20:31:27.009Z,64.80
2023-05-12T20:33:55.735Z,72.93
2023-05-12T20:36:24.091Z,73.53
2023-05-12T20:38:52.496Z,61.83
2023-05-12T20:41:20.792Z,65.97
2023-05-12T20:43:49.100Z,59.60
2023-05-12T20:46:17.727Z,48.42
2023-05-12T20:48:46.551Z,70.03
2023-05-12T20:51:15.401Z,63.17
2023-05-12T20:53:43.902Z,45.63
2023-05-12T20:56:13.063Z,51.40
2023-05-12T20:58:42.033Z,67.13
2023-05-12T21:01:10.235Z,56.45
2023-05-12T21:03:38.571Z,58.80
2023-05-12T21:06:07.394Z,54.50
2023-05-12T21:08:35.571Z,54.08
2023-05-12T21:11:04.002Z,49.47
2023-05-12T21:13:32.404Z,50.42
2023-05-12T21:16:00.597Z,45.05
2023-05-12T21:18:29.082Z,59.40
2023-05-12T21:20:57.484Z,48.42
2023-05-12T21:23:25.849Z,54.97
2023-05-12T21:25:54.583Z,48.60
2023-05-12T21:28:22.984Z,50.95
2023-05-12T21:30:51.316Z,68.85
2023-05-12T21:33:19.608Z,66.45
2023-05-12T21:37:46.430Z,69.03
2023-05-12T21:40:14.924Z,63.42
2023-05-12T21:42:43.824Z,61.38
2023-05-12T21:45:12.241Z,75.65
2023-05-12T21:47:40.369Z,62.00
2023-05-12T21:50:08.996Z,65.05
2023-05-12T21:52:37.242Z,70.93
2023-05-12T21:55:05.752Z,65.47
2023-05-12T21:57:33.903Z,64.55
2023-05-12T22:00:02.318Z,66.38
2023-05-12T22:02:37.737Z,71.93
2023-05-12T22:05:06.547Z,62.10
2023-05-12T22:07:34.688Z,85.70
2023-05-12T22:10:03.125Z,57.70
2023-05-12T22:12:31.732Z,50.53
2023-05-12T22:15:00.565Z,55.20
2023-05-12T22:17:28.832Z,39.20
2023-05-12T22:19:57.322Z,39.50
2023-05-12T22:22:25.754Z,32.05
2023-05-12T22:24:54.120Z,41.42
2023-05-12T22:27:22.656Z,40.25
2023-05-12T22:29:50.998Z,39.38
2023-05-12T22:32:19.279Z,30.85
2023-05-12T22:34:48.141Z,23.98
2023-05-12T22:37:16.490Z,27.38
2023-05-12T22:39:45.010Z,29.33
2023-05-12T22:42:13.291Z,29.75
2023-05-12T22:44:41.689Z,30.60
2023-05-12T23:02:27.418Z,23.90
2023-05-12T23:04:55.892Z,20.17
2023-05-12T23:07:24.091Z,23.80
2023-05-12T23:09:52.512Z,27.17
2023-05-12T23:12:20.931Z,22.58
2023-05-12T23:14:49.350Z,22.90
2023-05-12T23:17:17.585Z,25.10
2023-05-12T23:19:46.028Z,26.90
2023-05-12T23:22:14.225Z,19.98
2023-05-12T23:24:42.488Z,20.88
2023-05-12T23:27:11.089Z,17.50
2023-05-12T23:29:39.363Z,14.73
2023-05-12T23:32:07.779Z,18.25
2023-05-12T23:34:36.213Z,14.85
2023-05-12T23:37:04.391Z,19.05
2023-05-12T23:39:32.679Z,16.63
2023-05-12T23:42:01.023Z,15.52
2023-05-12T23:44:29.311Z,23.67
2023-05-12T23:46:57.467Z,24.02
2023-05-12T23:49:25.976Z,20.73
2023-05-12T23:51:54.231Z,23.27
2023-05-12T23:54:22.585Z,23.77
2023-05-12T23:56:51.117Z,22.63
2023-05-12T23:59:19.586Z,17.67
